Mill Rose Farm Restricted Landing Area

Jump to: basic info | weather | runways | comments

Related pages: nearby airports | nearby navaids | notams | map

Basic information (top)

Codes: IL68
Location: lon 42.077202, lat -88.159798, elev 850 ft / 259 m msl
Status: small_airport

Weather (top)

Current conditions for Dupage Airport 11nm (20km) SSW (rec'd 2014/10/02 14:15Z):

KDPA 021415Z 17006KT 6SM HZ SCT025 20/17 A2987 RMK AO2 T02000172

Airport forecast for Dupage Airport 11nm (20km) SSW (rec'd 2014/10/02 12:42Z):

TAF KDPA 021141Z 0212/0312 16007KT P6SM SCT015 BKN035 OVC090 
      TEMPO 0212/0214 P6SM -SHRA BKN015 
     FM021400 17010KT P6SM BKN035 OVC090 
     FM022300 18010G16KT 5SM -SHRA VCTS OVC035CB 
      TEMPO 0300/0304 2SM TSRA SCT010 OVC020CB 
     FM030500 21012KT 4SM SHRA BR SCT003 BKN007 OVC010 
     FM031100 28012G17KT 6SM -SHRA BKN009 OVC015

Runways (top)

N/S: 2,500 x 100 ft (762 x 30 m) — grass — lighted

Latest comments (top)

No comments yet for Mill Rose Farm Restricted Landing Area

More... (top)

See also NOTAMs and nearby airports and navaids, or visit the Mill Rose Farm Restricted Landing Area page at the main OurAirports website..